Hovedside
METAR-TAF:

METAR-TAF

Lufthavner :

Såtenäs, Sverige

breddegrad: 58-26N, lengdegrad: 012-42E, høyde over havet: 54 m

Gjeldene værobservasjon

Denne rapporten ble laget for 19 minutter siden, klokken 05:50 UTC
Vind 2 kt fra Sør
Temperatur -2°C
Luftfuktighet 93%
Trykk 1027 hPa
Sikt 10 km eller mer
ingen skyer under 1500 m og ingen bygeskyer

METAR: ESIB 240550Z 18002KT CAVOK M02/M03 Q1027

Tid: 07:09 (06:09 UTC)

Varsel

Denne rapporten ble laget for 19 minutter siden, klokken 05:50 UTC
Varsel gyldig fra 24. klokken 06 UTC til 24. klokken 15 UTC
Vind 3 kt fra Sør
Sikt 10 km eller mer
ingen skyer under 1500 m og ingen bygeskyer
Blir
fra 24. klokken 10 UTC til 24. klokken 12 UTC
Vind 10 kt fra Vest-sørvest med vindkast opp mot 20 kt

TAF: ESIB 240550Z 2406/2415 17003KT CAVOK BECMG 2410/2412 24010G20KT RMK MIL

Værobservasjoner og værvarsel for over 4000 flyplasser (METAR- og TAF-rapporter).

Tilgjengelige stasjoner er representert av de røde og gule prikkene på kartet.

Hold musepekeren over prikken for å se navnet på stasjonen.

Klikk så for å se værobservasjoner og -varsler.

For å forandre kartet kan du klikke på den grønne knappen med svart kryss for å zoome inn, på den grønne knappen med strek for å zoome ut, eller på de grønne pilene for å se tilstøtende kart.


METAR-TAF: